createdAt,value
2023-04-04T00:03:25.571Z,101242.31
2023-04-04T00:08:53.143Z,101232.69
2023-04-04T00:14:20.580Z,101222.38
2023-04-04T00:19:48.331Z,101220.31
2023-04-04T00:25:16.282Z,101211.47
2023-04-04T00:30:44.139Z,101205.06
2023-04-04T00:36:11.830Z,101199.94
2023-04-04T00:41:39.946Z,101195.81
2023-04-04T00:47:07.194Z,101193.06
2023-04-04T00:52:34.050Z,101192.03
2023-04-04T00:58:01.286Z,101184.47
2023-04-04T01:03:28.254Z,101188.72
2023-04-04T01:08:57.693Z,101184.78
2023-04-04T01:14:25.638Z,101190.13
2023-04-04T01:20:07.030Z,101174.50
2023-04-04T01:25:43.027Z,101177.00
2023-04-04T01:31:17.813Z,101161.31
2023-04-04T01:37:11.819Z,101161.63
2023-04-04T01:42:40.545Z,101144.41
2023-04-04T01:48:09.294Z,101151.28
2023-04-04T01:53:36.449Z,101159.97
2023-04-04T01:59:04.483Z,101149.94
2023-04-04T02:04:32.439Z,101150.88
2023-04-04T02:09:59.360Z,101137.63
2023-04-04T02:15:27.164Z,101136.91
2023-04-04T02:20:58.272Z,101137.47
2023-04-04T02:26:25.208Z,101140.22
2023-04-04T02:31:52.359Z,101138.63
2023-04-04T02:37:20.381Z,101134.00
2023-04-04T02:42:52.557Z,101139.31
2023-04-04T02:48:21.687Z,101135.91
2023-04-04T02:53:52.601Z,101152.94
2023-04-04T02:59:26.263Z,101149.16
2023-04-04T03:04:53.603Z,101145.75
2023-04-04T03:10:21.555Z,101145.09
2023-04-04T03:15:49.898Z,101146.34
2023-04-04T03:21:17.506Z,101155.13
2023-04-04T03:26:44.484Z,101148.66
2023-04-04T03:32:14.154Z,101147.97
2023-04-04T03:37:43.231Z,101148.97
2023-04-04T03:43:11.459Z,101140.91
2023-04-04T03:48:39.102Z,101149.94
2023-04-04T03:54:09.471Z,101156.84
2023-04-04T03:59:36.422Z,101147.03
2023-04-04T04:05:05.025Z,101146.59
2023-04-04T04:10:34.823Z,101152.91
2023-04-04T04:16:02.425Z,101152.47
2023-04-04T04:21:30.517Z,101147.31
2023-04-04T04:26:57.444Z,101154.34
2023-04-04T04:32:26.754Z,101152.97
2023-04-04T04:37:55.985Z,101142.47
2023-04-04T04:43:24.274Z,101143.88
2023-04-04T04:48:52.001Z,101149.56
2023-04-04T04:54:25.335Z,101143.91
2023-04-04T04:59:55.553Z,101138.25
2023-04-04T05:05:27.772Z,101139.09
2023-04-04T05:11:05.259Z,101146.03
2023-04-04T05:16:34.966Z,101153.06
2023-04-04T05:22:03.384Z,101163.72
2023-04-04T05:27:35.669Z,101158.31
2023-04-04T05:33:03.569Z,101164.59
2023-04-04T05:38:32.647Z,101157.59
2023-04-04T05:44:00.283Z,101163.44
2023-04-04T05:49:27.794Z,101156.72
2023-04-04T05:54:58.712Z,101162.72
2023-04-04T06:00:29.962Z,101155.97
2023-04-04T06:06:05.915Z,101152.75
2023-04-04T06:11:34.252Z,101155.13
2023-04-04T06:17:08.174Z,101149.78
2023-04-04T06:22:35.782Z,101147.47
2023-04-04T06:28:03.950Z,101155.63
2023-04-04T06:33:33.224Z,101142.47
2023-04-04T06:39:02.539Z,101157.28
2023-04-04T06:44:30.035Z,101144.97
2023-04-04T06:49:57.057Z,101144.75
2023-04-04T06:55:24.107Z,101140.28
2023-04-04T07:00:51.986Z,101143.66
2023-04-04T07:06:23.923Z,101144.66
2023-04-04T07:11:53.341Z,101142.72
2023-04-04T07:17:24.881Z,101145.72
2023-04-04T07:22:53.400Z,101138.25
2023-04-04T07:28:21.376Z,101141.97
2023-04-04T07:33:50.225Z,101146.44
2023-04-04T07:39:17.354Z,101144.69
2023-04-04T07:44:45.727Z,101144.25
2023-04-04T07:50:14.241Z,101151.16
2023-04-04T07:55:40.994Z,101148.53
2023-04-04T08:01:08.637Z,101153.16
2023-04-04T08:06:37.223Z,101144.44
2023-04-04T08:12:06.432Z,101151.91
2023-04-04T08:17:34.105Z,101145.22
2023-04-04T08:23:04.595Z,101136.59
2023-04-04T08:28:32.557Z,101145.91
2023-04-04T08:34:02.439Z,101142.66
2023-04-04T08:39:30.570Z,101134.59
2023-04-04T08:45:02.263Z,101135.72
2023-04-04T08:50:30.639Z,101149.28
2023-04-04T08:56:00.642Z,101139.16
2023-04-04T09:01:30.111Z,101131.97
2023-04-04T09:06:59.387Z,101127.94
2023-04-04T09:12:27.632Z,101125.34
2023-04-04T09:17:55.504Z,101114.75
2023-04-04T09:23:24.113Z,101118.69
2023-04-04T09:28:55.873Z,101117.78
2023-04-04T09:34:24.270Z,101124.41
2023-04-04T09:39:52.195Z,101129.88
2023-04-04T09:45:29.677Z,101125.75
2023-04-04T09:50:59.994Z,101120.91
2023-04-04T09:56:27.939Z,101129.16
2023-04-04T10:01:56.188Z,101118.16
2023-04-04T10:07:29.757Z,101122.84
2023-04-04T10:13:01.507Z,101119.22
2023-04-04T10:18:32.873Z,101105.53
2023-04-04T10:24:03.735Z,101096.31
2023-04-04T10:29:32.760Z,101100.28
2023-04-04T10:35:09.389Z,101097.13
2023-04-04T10:40:40.556Z,101099.44
2023-04-04T10:46:16.523Z,101090.59
2023-04-04T10:51:55.104Z,101102.84
2023-04-04T10:57:24.731Z,101103.00
2023-04-04T11:02:58.399Z,101091.63
2023-04-04T11:08:28.134Z,101085.41
2023-04-04T11:14:02.189Z,101070.97
2023-04-04T11:19:30.651Z,101071.09
2023-04-04T11:25:01.104Z,101064.47
2023-04-04T11:30:29.000Z,101052.69
2023-04-04T11:36:00.549Z,101061.13
2023-04-04T11:41:52.956Z,101063.88
2023-04-04T11:47:24.544Z,101062.38
2023-04-04T11:52:54.952Z,101064.75
2023-04-04T11:58:23.311Z,101069.31
2023-04-04T12:03:51.769Z,101067.34
2023-04-04T12:09:20.946Z,101063.84
2023-04-04T12:14:49.890Z,101054.69
2023-04-04T12:20:17.540Z,101052.41
2023-04-04T12:25:48.411Z,101043.63
2023-04-04T12:31:16.772Z,101049.75
2023-04-04T12:36:44.777Z,101039.78
2023-04-04T12:42:13.648Z,101029.09
2023-04-04T12:47:55.966Z,101037.19
2023-04-04T12:53:29.730Z,101040.31
2023-04-04T12:59:03.576Z,101035.00
2023-04-04T13:04:32.864Z,101036.81
2023-04-04T13:10:04.156Z,101036.81
2023-04-04T13:16:01.465Z,101028.84
2023-04-04T13:21:29.570Z,101032.69
2023-04-04T13:26:57.504Z,101011.16
2023-04-04T13:32:25.636Z,101023.53
2023-04-04T13:37:53.517Z,101031.34
2023-04-04T13:43:21.467Z,101016.75
2023-04-04T13:48:48.898Z,101018.47
2023-04-04T13:54:16.444Z,101018.75
2023-04-04T13:59:44.311Z,101010.84
2023-04-04T14:05:12.367Z,101007.22
2023-04-04T14:10:40.532Z,101004.00
2023-04-04T14:16:09.803Z,101008.94
2023-04-04T14:21:37.199Z,101003.81
2023-04-04T14:27:04.455Z,101008.63
2023-04-04T14:32:33.337Z,101003.44
2023-04-04T14:38:01.388Z,100992.94
2023-04-04T14:43:29.508Z,101009.47
2023-04-04T14:48:57.496Z,101010.31
2023-04-04T14:54:28.523Z,101001.53
2023-04-04T14:59:56.374Z,101004.81
2023-04-04T15:05:25.897Z,100999.00
2023-04-04T15:10:53.372Z,100992.03
2023-04-04T15:16:21.582Z,100996.75
2023-04-04T15:21:49.734Z,100991.81
2023-04-04T15:27:18.855Z,100981.94
2023-04-04T15:32:46.496Z,100982.97
2023-04-04T15:38:13.726Z,100969.84
2023-04-04T15:43:42.305Z,100967.44
2023-04-04T15:49:10.288Z,100971.00
2023-04-04T15:54:39.335Z,100956.81
2023-04-04T16:00:06.861Z,100952.72
2023-04-04T16:05:37.560Z,100960.91
2023-04-04T16:11:05.706Z,100967.78
2023-04-04T16:16:33.317Z,100953.75
2023-04-04T16:22:01.818Z,100952.63
2023-04-04T16:27:29.902Z,100954.84
2023-04-04T16:32:57.950Z,100948.81
2023-04-04T16:38:25.585Z,100942.75
2023-04-04T16:43:54.884Z,100934.72
2023-04-04T16:49:23.080Z,100936.75
2023-04-04T16:54:50.621Z,100931.56
2023-04-04T17:00:18.150Z,100939.34
2023-04-04T17:05:46.176Z,100940.06
2023-04-04T17:11:13.856Z,100932.75
2023-04-04T17:16:43.403Z,100933.69
2023-04-04T17:22:10.671Z,100925.94
2023-04-04T17:27:38.157Z,100922.53
2023-04-04T17:33:05.652Z,100922.69
2023-04-04T17:38:32.867Z,100922.31
2023-04-04T17:44:01.193Z,100922.72
2023-04-04T17:49:28.720Z,100928.59
2023-04-04T17:54:56.043Z,100929.38
2023-04-04T18:00:24.550Z,100931.56
2023-04-04T18:05:52.950Z,100927.53
2023-04-04T18:11:21.942Z,100928.75
2023-04-04T18:16:52.629Z,100929.25
2023-04-04T18:22:19.916Z,100929.94
2023-04-04T18:27:47.714Z,100940.44
2023-04-04T18:33:15.082Z,100934.06
2023-04-04T18:38:42.915Z,100937.75
2023-04-04T18:44:09.741Z,100934.53
2023-04-04T18:49:36.569Z,100933.41
2023-04-04T18:55:05.130Z,100935.56
2023-04-04T19:00:33.380Z,100934.69
2023-04-04T19:06:01.751Z,100931.56
2023-04-04T19:11:28.823Z,100934.50
2023-04-04T19:16:55.885Z,100929.47
2023-04-04T19:22:23.253Z,100930.28
2023-04-04T19:27:52.587Z,100923.63
2023-04-04T19:33:23.365Z,100931.97
2023-04-04T19:38:54.534Z,100926.47
2023-04-04T19:44:24.952Z,100923.69
2023-04-04T19:49:54.530Z,100928.91
2023-04-04T19:55:39.991Z,100927.63
2023-04-04T20:01:10.140Z,100913.88
2023-04-04T20:06:38.687Z,100912.13
2023-04-04T20:12:09.605Z,100909.56
2023-04-04T20:17:37.622Z,100905.50
2023-04-04T20:23:06.715Z,100897.94
2023-04-04T20:28:35.947Z,100900.34
2023-04-04T20:34:07.872Z,100892.19
2023-04-04T20:39:45.456Z,100908.19
2023-04-04T20:45:28.846Z,100903.16
2023-04-04T20:50:57.281Z,100906.94
2023-04-04T20:56:41.173Z,100897.22
2023-04-04T21:02:10.906Z,100887.88
2023-04-04T21:07:41.243Z,100889.25
2023-04-04T21:13:08.332Z,100886.31
2023-04-04T21:18:37.435Z,100881.00
2023-04-04T21:24:10.454Z,100869.91
2023-04-04T21:29:38.781Z,100868.44
2023-04-04T21:35:09.441Z,100857.50
2023-04-04T21:40:37.384Z,100856.28
2023-04-04T21:46:04.827Z,100850.66
2023-04-04T21:51:34.280Z,100855.25
2023-04-04T21:57:01.862Z,100856.19
2023-04-04T22:02:30.350Z,100854.63
2023-04-04T22:07:57.740Z,100856.25
2023-04-04T22:13:33.520Z,100843.34
2023-04-04T22:19:01.679Z,100841.44
2023-04-04T22:24:29.876Z,100836.34
2023-04-04T22:29:57.569Z,100835.31
2023-04-04T22:35:24.679Z,100837.81
2023-04-04T22:40:52.876Z,100839.72
2023-04-04T22:46:20.906Z,100835.53
2023-04-04T22:51:49.262Z,100838.94
2023-04-04T22:57:16.771Z,100838.25
2023-04-04T23:02:46.503Z,100824.47
2023-04-04T23:08:16.241Z,100828.63
2023-04-04T23:13:43.947Z,100821.69
2023-04-04T23:19:11.847Z,100820.38
2023-04-04T23:24:40.537Z,100809.56
2023-04-04T23:30:08.037Z,100815.56
2023-04-04T23:35:35.669Z,100807.59
2023-04-04T23:41:02.370Z,100799.69
2023-04-04T23:46:32.777Z,100791.41
2023-04-04T23:52:00.857Z,100799.19
2023-04-04T23:57:29.002Z,100789.16
